Time;durP1;ratioP1;P1;durP2;ratioP2;P2;SDS_P1;SDS_P2;PMS_P1;PMS_P2;Temp;Humidity;BMP_temperature;BMP_pressure;BME280_temperature;BME280_humidity;BME280_pressure;Samples;Min_cycle;Max_cycle;Signal;HPM_P1;HPM_P2
2022/06/19 00:00:10;;;;;;;7.08;5.50;;;;;;;14.51;67.21;97440.04;1751589;80;27586;-79
2022/06/19 00:02:41;;;;;;;12.03;6.15;;;;;;;14.57;67.34;97438.28;1743828;80;26375;-77
2022/06/19 00:05:08;;;;;;;9.10;5.50;;;;;;;14.57;67.24;97436.40;1751585;80;25189;-77
2022/06/19 00:07:34;;;;;;;10.40;6.00;;;;;;;14.51;67.22;97444.64;1752237;80;26402;-76
2022/06/19 00:10:02;;;;;;;9.30;5.97;;;;;;;14.49;67.35;97444.88;1753227;80;25764;-78
2022/06/19 00:12:28;;;;;;;7.17;5.03;;;;;;;14.48;67.50;97443.25;1761806;80;28217;-77
2022/06/19 00:14:55;;;;;;;11.83;5.75;;;;;;;14.37;67.50;97446.72;1755091;80;25885;-76
2022/06/19 00:17:22;;;;;;;7.83;5.25;;;;;;;14.27;67.70;97441.88;1764065;80;25845;-77
2022/06/19 00:19:48;;;;;;;10.43;5.87;;;;;;;14.29;67.93;97447.08;1768065;80;25855;-76
2022/06/19 00:22:15;;;;;;;7.50;5.40;;;;;;;14.29;68.00;97448.43;1767100;80;26418;-78
2022/06/19 00:24:42;;;;;;;9.55;5.40;;;;;;;14.31;68.15;97436.81;1742953;80;28296;-77
2022/06/19 00:27:08;;;;;;;7.72;5.08;;;;;;;14.23;68.20;97437.16;1741322;80;26035;-76
2022/06/19 00:29:35;;;;;;;9.75;4.90;;;;;;;14.24;68.32;97436.11;1758056;80;25772;-77
2022/06/19 00:32:06;;;;;;;9.78;5.05;;;;;;;14.27;68.42;97439.16;1761897;80;25776;-77
2022/06/19 00:34:31;;;;;;;8.95;4.72;;;;;;;14.29;68.38;97432.14;1758518;80;25769;-76
2022/06/19 00:37:01;;;;;;;7.28;5.10;;;;;;;14.36;68.35;97435.59;1754233;80;27454;-76
2022/06/19 00:39:28;;;;;;;7.97;5.08;;;;;;;14.31;68.30;97438.17;1753284;80;25856;-76
2022/06/19 00:41:55;;;;;;;7.10;4.85;;;;;;;14.25;68.40;97432.33;1761436;80;25901;-75
2022/06/19 00:44:22;;;;;;;7.92;4.90;;;;;;;14.30;68.65;97433.80;1760344;80;25861;-77
2022/06/19 00:47:18;;;;;;;9.48;5.00;;;;;;;14.22;68.69;97427.36;1761624;80;25919;-77
2022/06/19 00:49:58;;;;;;;7.37;4.05;;;;;;;14.19;68.83;97431.89;1764317;80;27525;-77
2022/06/19 00:52:30;;;;;;;5.90;4.30;;;;;;;14.21;68.83;97437.39;1744857;80;25667;-76
2022/06/19 00:55:08;;;;;;;7.00;4.30;;;;;;;14.24;68.87;97433.39;1761798;80;25931;-79
2022/06/19 00:57:39;;;;;;;8.83;5.20;;;;;;;14.20;68.86;97426.23;1762874;80;25718;-77
2022/06/19 01:00:14;;;;;;;7.55;4.70;;;;;;;14.19;68.89;97433.25;1760554;80;25848;-76
2022/06/19 01:02:42;;;;;;;6.20;4.05;;;;;;;14.20;68.85;97437.63;1664880;84;28106;-76
2022/06/19 01:05:13;;;;;;;6.37;5.28;;;;;;;14.20;69.04;97424.05;1667630;84;25866;-77
2022/06/19 01:07:41;;;;;;;9.00;4.53;;;;;;;14.16;68.91;97425.56;1657687;85;25756;-77
2022/06/19 01:10:12;;;;;;;6.00;4.40;;;;;;;14.10;69.13;97421.91;1657236;85;25995;-79
2022/06/19 01:12:43;;;;;;;5.53;4.15;;;;;;;14.09;69.15;97426.22;1626164;87;25892;-80
2022/06/19 01:15:15;;;;;;;7.35;4.83;;;;;;;14.01;69.15;97420.58;1622564;87;27551;-78
2022/06/19 01:17:47;;;;;;;9.78;4.70;;;;;;;13.93;69.35;97412.25;1646544;86;25723;-77
2022/06/19 01:20:15;;;;;;;6.87;4.90;;;;;;;13.89;69.54;97415.64;1664156;86;26047;-77
2022/06/19 01:23:08;;;;;;;5.10;4.10;;;;;;;13.87;69.78;97412.36;1643188;85;25911;-78
2022/06/19 01:25:38;;;;;;;6.25;4.33;;;;;;;13.82;69.78;97413.05;1661565;86;26109;-79
2022/06/19 01:31:05;;;;;;;4.97;3.92;;;;;;;13.79;70.00;97405.89;1651157;86;25751;-77
2022/06/19 01:33:46;;;;;;;5.50;3.87;;;;;;;13.75;70.18;97402.84;1639906;85;25858;-79
2022/06/19 01:36:16;;;;;;;7.80;3.98;;;;;;;13.74;70.30;97399.00;1624469;86;26816;-79
2022/06/19 01:38:48;;;;;;;5.87;4.08;;;;;;;13.71;70.39;97398.92;1618690;86;26062;-77
2022/06/19 01:41:24;;;;;;;5.85;4.67;;;;;;;13.70;70.57;97399.98;1615177;87;27544;-76
2022/06/19 01:43:51;;;;;;;4.72;4.12;;;;;;;13.65;70.62;97391.69;1628575;87;25901;-80
2022/06/19 01:46:19;;;;;;;6.45;4.15;;;;;;;13.67;70.67;97386.87;1601231;87;25758;-78
2022/06/19 01:48:46;;;;;;;6.72;4.30;;;;;;;13.66;70.81;97390.64;1614291;86;25879;-77
2022/06/19 01:51:13;;;;;;;5.17;4.20;;;;;;;13.64;70.90;97385.44;1634732;87;25810;-78
2022/06/19 01:53:45;;;;;;;6.33;4.15;;;;;;;13.59;71.02;97381.26;1617575;87;27428;-76
2022/06/19 01:56:13;;;;;;;5.47;4.12;;;;;;;13.57;71.03;97390.67;1639137;87;25645;-77
2022/06/19 01:58:47;;;;;;;4.95;4.42;;;;;;;13.56;71.05;97384.42;1636353;87;25767;-78
2022/06/19 02:01:13;;;;;;;5.60;4.72;;;;;;;13.56;71.12;97382.23;1618739;87;25896;-79
2022/06/19 02:03:47;;;;;;;5.28;4.50;;;;;;;13.53;71.10;97384.05;1619712;84;25812;-77
2022/06/19 02:06:18;;;;;;;7.20;4.37;;;;;;;13.54;71.15;97377.56;1631659;86;28078;-77
2022/06/19 02:08:45;;;;;;;4.97;3.95;;;;;;;13.57;71.18;97378.47;1653954;86;25985;-75
2022/06/19 02:11:13;;;;;;;7.03;3.95;;;;;;;13.58;71.18;97382.84;1657510;85;25337;-76
2022/06/19 02:13:40;;;;;;;4.67;4.10;;;;;;;13.60;71.33;97382.91;1641389;86;26545;-79
2022/06/19 02:16:12;;;;;;;8.63;4.25;;;;;;;13.56;71.26;97371.39;1656584;86;25945;-77
2022/06/19 02:18:43;;;;;;;9.30;4.33;;;;;;;13.55;71.29;97373.80;1633069;86;27467;-79
2022/06/19 02:21:18;;;;;;;5.97;4.33;;;;;;;13.55;71.51;97368.38;1655403;86;25777;-79
2022/06/19 02:23:46;;;;;;;5.15;4.65;;;;;;;13.46;71.50;97365.17;1645032;86;25829;-77
2022/06/19 02:26:14;;;;;;;6.42;4.25;;;;;;;13.45;71.61;97362.69;1641157;86;26484;-76
2022/06/19 02:28:44;;;;;;;8.58;4.42;;;;;;;13.44;71.69;97359.67;1641220;86;25890;-78
2022/06/19 02:31:11;;;;;;;6.45;4.30;;;;;;;13.41;71.80;97360.95;1650827;86;27598;-79
2022/06/19 02:33:42;;;;;;;5.97;4.03;;;;;;;13.40;71.86;97355.80;1649841;85;25995;-79
2022/06/19 02:36:40;;;;;;;5.75;4.22;;;;;;;13.37;71.98;97354.36;1657221;85;25767;-80
2022/06/19 02:39:36;;;;;;;6.15;4.67;;;;;;;13.34;72.04;97352.93;1650262;85;25894;-78
2022/06/19 02:42:23;;;;;;;5.72;4.08;;;;;;;13.32;72.09;97356.39;1575836;90;25787;-79
2022/06/19 02:44:57;;;;;;;5.62;4.05;;;;;;;13.34;72.22;97342.09;1586397;90;28389;-81
2022/06/19 02:47:27;;;;;;;6.17;4.25;;;;;;;13.34;72.30;97342.09;1577200;90;25870;-78
2022/06/19 02:49:54;;;;;;;9.50;3.90;;;;;;;13.32;72.31;97343.37;1584629;90;25350;-79
2022/06/19 02:52:21;;;;;;;9.03;4.25;;;;;;;13.33;72.39;97345.85;1582263;90;26647;-77
2022/06/19 02:54:47;;;;;;;9.00;3.62;;;;;;;13.32;72.42;97344.72;1576908;90;25773;-79
2022/06/19 02:57:16;;;;;;;8.03;4.33;;;;;;;13.33;72.43;97347.20;1578079;90;27506;-79
2022/06/19 02:59:43;;;;;;;4.67;3.80;;;;;;;13.38;72.38;97349.23;1581748;88;25826;-78
2022/06/19 03:02:12;;;;;;;6.05;3.80;;;;;;;13.42;72.37;97349.05;1582916;86;25461;-77
2022/06/19 03:04:44;;;;;;;10.95;4.30;;;;;;;13.43;72.41;97349.88;1643409;86;26590;-78
2022/06/19 03:07:11;;;;;;;4.67;4.00;;;;;;;13.39;72.52;97347.36;1547162;90;25947;-78
2022/06/19 03:09:37;;;;;;;4.75;3.98;;;;;;;13.38;72.60;97347.05;1551471;92;26924;-77
2022/06/19 03:12:05;;;;;;;4.37;3.90;;;;;;;13.38;72.64;97349.23;1545482;91;25904;-77
2022/06/19 03:14:31;;;;;;;6.53;4.05;;;;;;;13.42;72.67;97344.16;1551539;92;25843;-79
2022/06/19 03:16:58;;;;;;;4.47;3.87;;;;;;;13.45;72.64;97347.25;1586523;89;25891;-78
2022/06/19 03:19:24;;;;;;;4.78;4.25;;;;;;;13.51;72.63;97347.69;1625021;86;25808;-77
2022/06/19 03:21:51;;;;;;;4.50;3.87;;;;;;;13.56;72.57;97348.34;1642711;86;27671;-77
2022/06/19 03:24:18;;;;;;;6.42;3.77;;;;;;;13.56;72.60;97347.81;1639557;86;25807;-78
2022/06/19 03:26:44;;;;;;;5.42;4.17;;;;;;;13.59;72.57;97354.14;1643216;86;26023;-76
2022/06/19 03:29:11;;;;;;;5.47;4.03;;;;;;;13.66;72.58;97354.84;1636531;86;25814;-76
2022/06/19 03:31:37;;;;;;;4.80;4.12;;;;;;;13.70;72.59;97357.41;1638958;86;26082;-79
2022/06/19 03:34:04;;;;;;;9.65;4.10;;;;;;;13.73;72.61;97351.22;1642683;86;28157;-77
2022/06/19 03:36:32;;;;;;;4.62;4.20;;;;;;;13.74;72.68;97356.42;1642609;85;25903;-78
2022/06/19 03:38:58;;;;;;;5.62;3.72;;;;;;;13.76;72.75;97354.30;1632489;85;25322;-77
2022/06/19 03:41:25;;;;;;;8.08;4.70;;;;;;;13.78;72.70;97358.94;1650720;86;25946;-77
2022/06/19 03:43:51;;;;;;;6.12;4.12;;;;;;;13.83;72.77;97360.97;1639271;86;25827;-77
2022/06/19 03:46:20;;;;;;;5.08;4.10;;;;;;;13.89;72.78;97363.56;1641423;86;27411;-77
2022/06/19 03:48:50;;;;;;;7.62;4.33;;;;;;;13.97;72.60;97369.20;1641880;86;25868;-79
2022/06/19 03:53:53;;;;;;;5.92;3.75;;;;;;;13.97;72.60;97367.31;1581199;89;25867;-78
2022/06/19 03:56:25;;;;;;;8.03;4.05;;;;;;;14.02;72.62;97370.14;1580990;89;25842;-77
2022/06/19 03:58:53;;;;;;;4.45;3.87;;;;;;;14.05;72.69;97368.84;1578227;88;27476;-77
2022/06/19 04:01:30;;;;;;;5.12;4.12;;;;;;;14.08;72.60;97364.84;1578539;89;25900;-78
2022/06/19 04:03:57;;;;;;;6.80;4.00;;;;;;;14.14;72.51;97365.25;1581128;88;25429;-77
2022/06/19 04:06:28;;;;;;;5.08;4.20;;;;;;;14.18;72.49;97368.62;1617021;88;25810;-77
2022/06/19 04:08:56;;;;;;;8.00;4.60;;;;;;;14.23;72.43;97362.50;1618218;88;25949;-79
2022/06/19 04:11:24;;;;;;;7.65;4.87;;;;;;;14.29;72.45;97366.98;1613060;88;27518;-79
2022/06/19 04:13:54;;;;;;;9.05;4.17;;;;;;;14.34;72.46;97365.75;1618033;87;25992;-78
2022/06/19 04:16:24;;;;;;;4.22;3.77;;;;;;;14.41;72.50;97370.55;1617394;88;25849;-78
2022/06/19 04:18:54;;;;;;;7.60;4.22;;;;;;;14.48;72.43;97365.84;1616693;88;26647;-79
2022/06/19 04:21:26;;;;;;;5.08;4.10;;;;;;;14.54;72.49;97365.41;1617368;88;25845;-77
2022/06/19 04:23:57;;;;;;;5.50;4.37;;;;;;;14.57;72.52;97361.70;1651573;85;27486;-78
2022/06/19 04:26:27;;;;;;;8.85;4.20;;;;;;;14.64;72.56;97358.31;1642374;85;25946;-77
2022/06/19 04:28:55;;;;;;;5.00;4.30;;;;;;;14.70;72.76;97351.94;1640512;85;25832;-78
2022/06/19 04:31:21;;;;;;;5.83;4.05;;;;;;;14.76;72.72;97357.77;1623883;85;25845;-77
2022/06/19 04:33:48;;;;;;;5.90;4.03;;;;;;;14.83;72.67;97355.46;1639227;85;25913;-77
2022/06/19 04:36:18;;;;;;;8.90;4.60;;;;;;;14.91;72.55;97357.80;1636479;86;27288;-77
2022/06/19 04:38:47;;;;;;;8.10;6.10;;;;;;;14.99;72.58;97360.12;1638877;85;26311;-77
2022/06/19 04:41:21;;;;;;;8.63;5.62;;;;;;;15.07;72.54;97363.32;1647374;86;25910;-77
2022/06/19 04:43:47;;;;;;;7.22;5.30;;;;;;;15.15;72.56;97355.31;1689187;80;25792;-78
2022/06/19 04:46:14;;;;;;;5.33;4.67;;;;;;;15.21;72.54;97349.45;1752030;80;26466;-77
2022/06/19 04:48:41;;;;;;;9.15;4.72;;;;;;;15.28;72.55;97352.84;1752423;80;27412;-78
2022/06/19 04:51:08;;;;;;;4.33;3.92;;;;;;;15.33;72.56;97348.34;1764694;80;25690;-78
2022/06/19 04:53:37;;;;;;;6.22;4.22;;;;;;;15.42;72.54;97344.16;1727145;80;25751;-77
2022/06/19 04:56:04;;;;;;;6.40;4.12;;;;;;;15.49;72.66;97333.94;1731466;80;25733;-77
2022/06/19 04:58:30;;;;;;;5.50;5.00;;;;;;;15.59;72.64;97335.21;1761536;80;25749;-77
2022/06/19 05:00:57;;;;;;;5.67;5.03;;;;;;;15.65;72.66;97340.52;1741629;80;27400;-79
2022/06/19 05:03:24;;;;;;;5.78;5.15;;;;;;;15.72;72.65;97343.89;1743774;80;25870;-78
2022/06/19 05:05:53;;;;;;;5.72;4.75;;;;;;;15.82;72.70;97340.52;1753111;80;26401;-78
2022/06/19 05:08:21;;;;;;;6.90;4.80;;;;;;;15.92;72.71;97333.91;1717409;80;25731;-81
2022/06/19 05:10:49;;;;;;;5.40;4.25;;;;;;;16.02;72.71;97332.71;1728305;80;25894;-78
2022/06/19 05:13:19;;;;;;;6.22;3.95;;;;;;;16.14;72.59;97321.73;1757362;80;27386;-80
2022/06/19 05:15:46;;;;;;;6.58;3.80;;;;;;;16.27;72.59;97329.56;1668208;84;25784;-77
2022/06/19 05:18:15;;;;;;;4.22;3.85;;;;;;;16.38;72.74;97323.73;1672027;84;25945;-79
2022/06/19 05:20:41;;;;;;;4.65;3.98;;;;;;;16.53;72.84;97321.23;1681126;84;26560;-76
2022/06/19 05:23:09;;;;;;;6.80;4.00;;;;;;;16.65;72.66;97317.89;1674219;84;26531;-76
2022/06/19 05:25:37;;;;;;;7.47;4.20;;;;;;;16.80;72.51;97315.34;1665881;84;27473;-78
2022/06/19 05:28:05;;;;;;;4.25;3.62;;;;;;;16.95;72.34;97312.52;1665179;84;25793;-77
2022/06/19 05:30:31;;;;;;;4.53;4.00;;;;;;;17.08;71.81;97311.60;1669964;85;25908;-76
2022/06/19 05:32:58;;;;;;;5.75;3.92;;;;;;;17.19;71.66;97308.45;1670531;84;25761;-76
2022/06/19 05:35:24;;;;;;;5.58;3.60;;;;;;;17.32;71.46;97309.41;1670525;84;25888;-77
2022/06/19 05:37:51;;;;;;;4.15;3.62;;;;;;;17.46;71.18;97302.47;1670689;84;27411;-77
2022/06/19 05:40:18;;;;;;;3.75;3.10;;;;;;;17.58;70.94;97305.87;1671939;84;25939;-78
2022/06/19 05:42:47;;;;;;;6.92;3.30;;;;;;;17.72;70.25;97305.48;1665635;85;25793;-77
2022/06/19 05:45:14;;;;;;;3.85;3.10;;;;;;;17.91;70.10;97300.73;1665720;84;25882;-79
2022/06/19 05:47:40;;;;;;;4.80;3.20;;;;;;;18.08;69.64;97296.50;1677602;84;25921;-76
2022/06/19 05:50:09;;;;;;;3.42;3.10;;;;;;;18.23;69.56;97293.06;1665539;85;28222;-76
2022/06/19 05:52:35;;;;;;;3.67;2.98;;;;;;;18.32;69.51;97290.11;1673412;84;25875;-76
2022/06/19 05:55:02;;;;;;;3.80;3.20;;;;;;;18.44;69.35;97294.02;1683309;84;25763;-77
2022/06/19 05:57:28;;;;;;;5.78;3.35;;;;;;;18.56;69.07;97289.16;1668605;85;25964;-76
2022/06/19 05:59:55;;;;;;;3.72;3.12;;;;;;;18.72;69.14;97290.90;1665644;85;25876;-77
2022/06/19 06:02:23;;;;;;;4.25;3.22;;;;;;;18.88;68.75;97288.52;1672390;85;27616;-78
2022/06/19 06:04:50;;;;;;;3.42;2.80;;;;;;;18.99;67.92;97286.64;1671870;85;25560;-77
2022/06/19 06:07:16;;;;;;;3.35;2.60;;;;;;;19.12;67.22;97280.68;1677044;85;25837;-78
2022/06/19 06:09:43;;;;;;;3.42;2.50;;;;;;;19.30;66.76;97277.46;1676338;84;25897;-77
2022/06/19 06:12:09;;;;;;;3.87;2.65;;;;;;;19.44;66.25;97278.56;1674425;84;25786;-80
2022/06/19 06:14:36;;;;;;;5.15;2.80;;;;;;;19.59;65.38;97283.82;1676124;82;27638;-77
2022/06/19 06:17:03;;;;;;;3.08;2.70;;;;;;;19.73;64.68;97280.28;1657843;85;25773;-78
2022/06/19 06:19:30;;;;;;;3.37;2.75;;;;;;;19.83;64.09;97282.75;1712759;82;25393;-78
2022/06/19 06:21:56;;;;;;;5.83;3.02;;;;;;;19.91;63.59;97278.11;1711416;82;26413;-78
2022/06/19 06:24:23;;;;;;;3.33;3.05;;;;;;;20.01;63.42;97279.48;1701617;83;25750;-77
2022/06/19 06:26:49;;;;;;;2.62;2.42;;;;;;;20.16;63.06;97271.80;1715354;82;27408;-79
2022/06/19 06:29:17;;;;;;;3.05;2.60;;;;;;;20.29;62.76;97266.55;1716380;82;26386;-80
2022/06/19 06:31:44;;;;;;;7.03;2.85;;;;;;;20.41;62.08;97256.14;1736613;82;25240;-80
2022/06/19 06:34:10;;;;;;;4.03;2.58;;;;;;;20.53;61.57;97252.30;1728341;82;25732;-79
2022/06/19 06:36:37;;;;;;;4.00;2.47;;;;;;;20.59;60.97;97245.14;1726991;82;25739;-81
2022/06/19 06:39:03;;;;;;;3.37;2.52;;;;;;;20.67;60.66;97242.36;1709346;82;27489;-82
2022/06/19 06:41:30;;;;;;;3.27;2.42;;;;;;;20.75;60.68;97237.13;1682230;83;25737;-82
2022/06/19 06:43:57;;;;;;;3.17;2.40;;;;;;;20.92;60.34;97234.02;1695470;82;26501;-80
2022/06/19 06:46:26;;;;;;;5.60;2.77;;;;;;;21.02;59.62;97231.78;1715351;82;25909;-81
2022/06/19 06:48:57;;;;;;;4.80;2.60;;;;;;;21.06;59.09;97230.94;1676037;82;25860;-79
2022/06/19 06:51:26;;;;;;;3.30;2.60;;;;;;;21.12;58.65;97231.20;1691468;83;27495;-80
2022/06/19 06:53:54;;;;;;;5.37;2.67;;;;;;;21.20;58.52;97229.25;1712961;83;25863;-81
2022/06/19 06:56:20;;;;;;;5.72;2.58;;;;;;;21.28;58.39;97220.95;1685301;83;26214;-80
2022/06/19 06:58:47;;;;;;;4.45;2.65;;;;;;;21.37;58.12;97228.88;1691768;83;26239;-82
2022/06/19 07:01:20;;;;;;;6.72;3.47;;;;;;;21.46;57.61;97219.48;1676542;83;25860;-78
2022/06/19 07:03:52;;;;;;;4.28;3.60;;;;;;;21.59;57.66;97220.20;1685070;83;27539;-81
2022/06/19 07:06:18;;;;;;;6.37;3.00;;;;;;;21.68;57.59;97222.60;1710838;83;25845;-80
2022/06/19 07:08:45;;;;;;;4.37;2.58;;;;;;;21.79;57.11;97215.91;1700603;83;25725;-81
2022/06/19 07:11:23;;;;;;;4.53;3.05;;;;;;;21.88;56.92;97211.44;1682138;82;25794;-80
2022/06/19 07:13:50;;;;;;;5.20;3.27;;;;;;;22.00;56.82;97211.63;1660897;85;25813;-79
2022/06/19 07:16:17;;;;;;;4.95;3.10;;;;;;;22.10;56.81;97214.28;1701687;81;27445;-81
2022/06/19 07:18:44;;;;;;;4.97;2.70;;;;;;;22.19;56.38;97205.69;1715248;81;25986;-79
2022/06/19 07:21:12;;;;;;;5.95;2.98;;;;;;;22.28;56.15;97204.76;1739029;81;25974;-80
2022/06/19 07:23:40;;;;;;;4.28;2.77;;;;;;;22.36;55.85;97200.55;1716259;81;25892;-80
2022/06/19 07:26:13;;;;;;;3.85;2.52;;;;;;;22.53;55.29;97196.78;1723716;81;25768;-79
2022/06/19 07:28:41;;;;;;;4.20;2.85;;;;;;;22.53;55.29;97196.78;1699856;82;28464;-80
2022/06/19 07:31:08;;;;;;;4.55;2.58;;;;;;;22.62;55.16;97199.14;1650793;83;25486;-79
2022/06/19 07:33:36;;;;;;;4.92;3.27;;;;;;;22.63;54.78;97183.45;1658132;84;25782;-80
2022/06/19 07:36:05;;;;;;;6.50;2.58;;;;;;;22.83;54.81;97192.85;1644560;85;25941;-82
2022/06/19 07:38:32;;;;;;;4.17;2.80;;;;;;;22.93;54.43;97183.66;1636071;85;25768;-79
2022/06/19 07:40:59;;;;;;;6.62;3.30;;;;;;;23.04;54.53;97172.77;1637138;85;27435;-81
2022/06/19 07:43:26;;;;;;;3.50;2.75;;;;;;;23.12;54.19;97150.63;1647193;85;25383;-81
2022/06/19 07:45:54;;;;;;;6.47;2.70;;;;;;;23.29;54.11;97164.70;1652547;86;25886;-80
2022/06/19 07:51:06;;;;;;;4.10;3.20;;;;;;;23.52;53.29;97157.48;1636298;85;25940;-83
2022/06/19 07:53:32;;;;;;;3.12;2.75;;;;;;;23.66;53.25;97150.09;1646732;86;28268;-80
2022/06/19 07:55:59;;;;;;;4.05;2.95;;;;;;;23.78;52.95;97153.19;1641390;85;25764;-81
2022/06/19 07:58:25;;;;;;;7.83;2.95;;;;;;;23.92;52.60;97156.77;1646481;85;25817;-83
2022/06/19 08:00:52;;;;;;;5.78;2.75;;;;;;;24.12;52.51;97150.08;1641248;85;25763;-81
2022/06/19 08:03:19;;;;;;;4.12;2.37;;;;;;;24.36;52.17;97152.69;1646880;85;25934;-79
2022/06/19 08:05:46;;;;;;;5.55;2.50;;;;;;;24.66;51.78;97136.88;1642867;86;27640;-80
2022/06/19 08:08:24;;;;;;;5.47;2.70;;;;;;;25.07;51.63;97137.40;1651742;85;25977;-82
2022/06/19 08:10:54;;;;;;;5.35;2.70;;;;;;;25.53;50.95;97136.30;1641660;85;26051;-80
2022/06/19 08:13:24;;;;;;;3.22;2.27;;;;;;;25.94;50.42;97141.09;1700749;82;25969;-82
2022/06/19 08:15:56;;;;;;;4.00;2.22;;;;;;;26.30;49.58;97145.69;1707889;83;25720;-83
2022/06/19 08:18:24;;;;;;;7.67;2.17;;;;;;;26.66;49.05;97146.88;1701766;82;27401;-83
2022/06/19 08:20:52;;;;;;;3.60;2.10;;;;;;;27.00;48.50;97150.33;1703862;82;25402;-81
2022/06/19 08:23:19;;;;;;;3.62;1.95;;;;;;;27.26;47.62;97142.86;1705659;83;25774;-80
2022/06/19 08:25:47;;;;;;;3.00;1.95;;;;;;;27.59;46.79;97148.75;1739970;80;25766;-80
2022/06/19 08:28:23;;;;;;;2.20;1.70;;;;;;;27.84;46.18;97146.52;1726647;80;25998;-81
2022/06/19 08:30:48;;;;;;;7.62;2.20;;;;;;;28.14;45.85;97145.20;1762374;80;27597;-79
2022/06/19 08:33:15;;;;;;;2.52;1.82;;;;;;;28.45;45.28;97146.36;1747289;80;25669;-81
2022/06/19 08:35:47;;;;;;;3.45;2.08;;;;;;;28.73;44.58;97136.44;1746565;80;25843;-82
2022/06/19 08:38:16;;;;;;;;;;;;;;;28.98;44.14;97129.91;1724804;80;26526;-83
2022/06/19 08:41:25;;;;;;;9.03;1.90;;;;;;;29.33;43.03;97127.72;1656318;84;27072;-80
2022/06/19 08:43:57;;;;;;;3.75;2.05;;;;;;;29.54;43.30;97129.11;1646443;84;27642;-80
2022/06/19 08:46:41;;;;;;;4.12;2.00;;;;;;;29.79;42.65;97143.94;1662818;85;26490;-82
2022/06/19 08:49:25;;;;;;;8.53;2.40;;;;;;;30.09;42.25;97139.05;1653334;84;25726;-82
2022/06/19 08:52:32;;;;;;;4.17;1.90;;;;;;;30.38;41.71;97143.06;1635836;85;25849;-82
2022/06/19 08:55:16;;;;;;;2.80;2.20;;;;;;;30.71;41.09;97140.79;1659498;85;25873;-82
2022/06/19 08:58:06;;;;;;;5.67;2.00;;;;;;;30.93;39.79;97136.13;1631008;86;27417;-80
2022/06/19 09:00:49;;;;;;;4.17;1.90;;;;;;;31.07;39.67;97140.77;1631238;87;25344;-80
2022/06/19 09:07:16;;;;;;;8.55;2.30;;;;;;;31.50;38.61;97128.16;1626634;86;25898;-80
2022/06/19 09:09:51;;;;;;;7.65;2.33;;;;;;;31.75;37.91;97117.75;1630720;86;25860;-78
2022/06/19 09:12:29;;;;;;;5.05;1.87;;;;;;;32.01;37.31;97125.61;1648667;85;27494;-76
2022/06/19 09:15:17;;;;;;;7.65;2.30;;;;;;;32.30;36.99;97116.86;1656960;85;25830;-77
2022/06/19 09:18:04;;;;;;;6.30;2.33;;;;;;;32.56;36.44;97117.72;1662748;84;25908;-76
2022/06/19 09:21:11;;;;;;;5.37;1.82;;;;;;;32.75;35.91;97107.22;1690177;84;25728;-77
2022/06/19 09:23:58;;;;;;;8.20;2.15;;;;;;;33.00;35.50;97116.20;1690633;84;25777;-78
2022/06/19 09:26:44;;;;;;;3.17;1.95;;;;;;;33.23;34.81;97115.17;1690815;84;27414;-79
2022/06/19 09:29:18;;;;;;;6.08;1.90;;;;;;;33.38;34.48;97118.28;1685800;84;25918;-77
2022/06/19 09:31:59;;;;;;;8.33;2.47;;;;;;;33.51;34.06;97125.36;1651579;86;25788;-79
2022/06/19 09:34:49;;;;;;;5.10;2.30;;;;;;;33.63;33.69;97118.22;1647202;85;28301;-77
2022/06/19 09:37:33;;;;;;;5.45;1.60;;;;;;;33.80;33.47;97119.21;1648156;85;25346;-77
2022/06/19 09:40:22;;;;;;;4.50;1.82;;;;;;;33.74;32.84;97117.84;1594494;89;27425;-79
2022/06/19 09:42:57;;;;;;;6.92;1.92;;;;;;;33.85;32.75;97116.69;1583767;88;25726;-78
2022/06/19 09:45:47;;;;;;;8.43;1.75;;;;;;;33.86;32.01;97114.92;1576119;89;25917;-77
2022/06/19 09:48:30;;;;;;;4.92;1.70;;;;;;;33.90;31.78;97114.41;1578740;89;26594;-79
2022/06/19 09:51:02;;;;;;;3.70;2.17;;;;;;;33.81;31.26;97111.01;1576638;89;25799;-76
2022/06/19 09:53:58;;;;;;;4.58;1.70;;;;;;;33.79;31.48;97112.58;1567120;89;27554;-79
2022/06/19 09:56:49;;;;;;;4.85;2.00;;;;;;;33.81;31.25;97098.41;1461940;96;25897;-78
2022/06/19 09:59:33;;;;;;;4.05;1.57;;;;;;;33.88;31.16;97095.77;1414035;100;25914;-77
2022/06/19 10:02:14;;;;;;;3.20;1.80;;;;;;;34.05;31.29;97096.48;1385947;101;26560;-79
2022/06/19 10:04:51;;;;;;;3.67;1.67;;;;;;;34.10;30.90;97099.77;1355287;105;25897;-80
2022/06/19 10:07:29;;;;;;;6.62;2.08;;;;;;;34.13;30.60;97095.42;1370927;102;27410;-80
2022/06/19 10:10:28;;;;;;;9.73;1.95;;;;;;;34.08;29.99;97095.72;1335376;105;26324;-77
2022/06/19 10:12:58;;;;;;;7.70;1.98;;;;;;;33.90;29.92;97095.41;1327821;105;25943;-80
2022/06/19 10:15:32;;;;;;;5.80;2.10;;;;;;;33.89;29.92;97081.99;1334831;105;25968;-76
2022/06/19 10:18:13;;;;;;;8.45;2.00;;;;;;;33.87;29.84;97084.34;1366415;103;26165;-78
2022/06/19 10:22:13;;;;;;;4.75;1.90;;;;;;;33.78;29.92;97078.18;1367643;102;28379;-77
2022/06/19 10:23:49;;;;;;;6.92;2.10;;;;;;;33.88;29.90;97066.37;1351227;103;26061;-77
2022/06/19 10:26:21;;;;;;;3.05;1.98;;;;;;;34.02;29.88;97055.22;1350937;104;25953;-76
2022/06/19 10:29:05;;;;;;;6.12;1.98;;;;;;;33.94;29.40;97055.07;1327628;106;26179;-77
2022/06/19 10:32:01;;;;;;;8.10;1.90;;;;;;;33.97;29.49;97057.13;1329377;106;26033;-76
2022/06/19 10:34:58;;;;;;;10.48;3.52;;;;;;;34.05;29.24;97054.48;1320569;108;27780;-76
2022/06/19 10:37:50;;;;;;;7.97;1.90;;;;;;;33.96;29.63;97049.91;1324411;106;26029;-76
2022/06/19 10:40:31;;;;;;;7.53;2.00;;;;;;;33.91;29.47;97048.84;1335834;106;32632;-76
2022/06/19 10:43:30;;;;;;;6.93;2.63;;;;;;;34.00;29.55;97049.17;1326422;107;26054;-75
2022/06/19 10:46:02;;;;;;;6.20;2.50;;;;;;;34.09;29.09;97037.94;1320535;106;25908;-77
2022/06/19 10:48:55;;;;;;;5.35;1.80;;;;;;;34.02;29.11;97051.02;1338314;106;27513;-77
2022/06/19 10:52:03;;;;;;;8.53;2.35;;;;;;;34.08;29.16;97041.11;1340824;105;26361;-76
2022/06/19 10:54:44;;;;;;;7.03;2.12;;;;;;;34.13;29.28;97035.20;1350985;105;25887;-75
2022/06/19 10:57:35;;;;;;;6.70;2.58;;;;;;;34.21;29.27;97038.34;1308560;106;26015;-76
2022/06/19 11:00:06;;;;;;;6.83;2.12;;;;;;;34.32;29.39;97033.75;1315203;107;26089;-78
2022/06/19 11:05:49;;;;;;;6.03;1.90;;;;;;;34.27;29.35;97026.49;1366202;104;26049;-77
2022/06/19 11:08:19;;;;;;;5.28;1.75;;;;;;;34.28;29.72;97018.90;1407907;99;25963;-77
2022/06/19 11:10:50;;;;;;;5.22;1.87;;;;;;;34.27;29.20;97015.88;1428764;97;26658;-76
2022/06/19 11:13:17;;;;;;;8.40;2.40;;;;;;;34.15;29.07;97009.05;1420629;98;25928;-76
2022/06/19 11:15:48;;;;;;;6.20;2.02;;;;;;;34.05;28.83;97013.28;1430535;98;27468;-78
2022/06/19 11:18:21;;;;;;;4.90;2.00;;;;;;;34.05;28.75;97004.08;1491151;94;25858;-78
2022/06/19 11:21:01;;;;;;;9.08;1.72;;;;;;;34.02;28.75;97008.42;1433282;98;26188;-76
2022/06/19 11:23:39;;;;;;;4.05;2.10;;;;;;;33.97;28.83;96995.53;1488838;95;26553;-76
2022/06/19 11:26:22;;;;;;;5.20;2.02;;;;;;;33.92;28.50;96998.66;1492491;95;26912;-75
2022/06/19 11:29:12;;;;;;;7.33;2.17;;;;;;;33.87;28.49;97003.16;1493196;95;27439;-76
2022/06/19 11:31:43;;;;;;;4.60;2.08;;;;;;;33.75;28.46;97003.34;1484461;95;25872;-76
2022/06/19 11:37:35;;;;;;;6.33;1.72;;;;;;;33.82;28.69;96996.45;1491835;95;26603;-77
2022/06/19 11:40:07;;;;;;;;;;;;;;;33.89;28.44;96987.39;1478550;95;26404;-78
2022/06/19 11:42:52;;;;;;;7.78;1.60;;;;;;;33.89;27.90;96987.39;1539949;87;27319;-76
2022/06/19 11:45:24;;;;;;;5.15;1.75;;;;;;;33.90;28.52;96977.81;1603604;87;25812;-77
2022/06/19 11:48:02;;;;;;;5.05;1.55;;;;;;;33.88;28.40;96975.38;1604206;88;25928;-75
2022/06/19 11:50:43;;;;;;;5.80;1.95;;;;;;;33.93;28.43;96969.45;1606347;88;25855;-77
2022/06/19 11:53:27;;;;;;;5.65;1.95;;;;;;;33.91;28.16;96969.05;1605320;88;25756;-78
2022/06/19 11:56:21;;;;;;;9.38;2.40;;;;;;;33.91;28.04;96963.45;1608751;88;27425;-76
2022/06/19 11:59:00;;;;;;;4.90;1.62;;;;;;;33.90;28.24;96956.23;1597171;87;26007;-76
2022/06/19 12:01:43;;;;;;;4.97;1.80;;;;;;;33.90;28.11;96962.42;1606528;88;25864;-78
2022/06/19 12:04:37;;;;;;;7.75;1.72;;;;;;;33.94;28.12;96959.06;1612085;88;26063;-76
2022/06/19 12:07:15;;;;;;;6.92;1.72;;;;;;;33.87;28.18;96956.97;1610255;88;25865;-77
2022/06/19 12:09:53;;;;;;;6.62;1.80;;;;;;;33.96;28.08;96958.91;1610815;88;27491;-78
2022/06/19 12:12:21;;;;;;;6.55;2.10;;;;;;;33.99;27.99;96957.36;1623086;87;26351;-81
2022/06/19 12:14:53;;;;;;;6.95;1.90;;;;;;;34.02;27.90;96951.61;1627978;87;25958;-80
2022/06/19 12:17:37;;;;;;;4.35;1.98;;;;;;;34.05;27.91;96948.07;1627504;87;25882;-77